createdAt,value
2023-05-11T00:00:40.982Z,99970.56
2023-05-11T00:03:07.713Z,99964.16
2023-05-11T00:05:34.388Z,99964.28
2023-05-11T00:08:00.995Z,99961.19
2023-05-11T00:10:30.770Z,99965.78
2023-05-11T00:13:02.647Z,99970.47
2023-05-11T00:15:29.352Z,99979.59
2023-05-11T00:17:56.000Z,99970.38
2023-05-11T00:20:23.844Z,99967.91
2023-05-11T00:22:50.506Z,99963.59
2023-05-11T00:25:17.253Z,99968.72
2023-05-11T00:27:46.191Z,99968.84
2023-05-11T00:30:14.830Z,99965.03
2023-05-11T00:32:42.582Z,99969.06
2023-05-11T00:35:11.422Z,99961.13
2023-05-11T00:37:41.442Z,99962.69
2023-05-11T00:40:08.402Z,99963.44
2023-05-11T00:42:35.019Z,99965.22
2023-05-11T00:45:01.716Z,99959.41
2023-05-11T00:47:28.410Z,99957.09
2023-05-11T00:49:55.327Z,99965.13
2023-05-11T00:52:22.322Z,99962.78
2023-05-11T00:54:49.389Z,99968.94
2023-05-11T00:57:17.282Z,99968.06
2023-05-11T00:59:43.796Z,99973.72
2023-05-11T01:02:10.671Z,99973.06
2023-05-11T01:04:38.817Z,99966.81
2023-05-11T01:07:24.175Z,99967.97
2023-05-11T01:10:18.482Z,99961.63
2023-05-11T01:12:59.988Z,99963.13
2023-05-11T01:15:46.477Z,99971.25
2023-05-11T01:18:23.603Z,99964.88
2023-05-11T01:20:55.357Z,99965.44
2023-05-11T01:24:09.092Z,99961.63
2023-05-11T01:27:13.066Z,99964.47
2023-05-11T01:29:57.587Z,99962.78
2023-05-11T01:32:27.391Z,99965.63
2023-05-11T01:35:04.590Z,99969.53
2023-05-11T01:37:32.780Z,99968.78
2023-05-11T01:40:04.844Z,99967.84
2023-05-11T01:42:58.246Z,99969.44
2023-05-11T01:45:27.684Z,99967.09
2023-05-11T01:47:59.780Z,99973.25
2023-05-11T01:50:26.817Z,99972.38
2023-05-11T01:52:54.116Z,99972.31
2023-05-11T01:55:23.620Z,99971.25
2023-05-11T01:57:54.461Z,99975.78
2023-05-11T02:00:22.708Z,99977.81
2023-05-11T02:02:50.133Z,99972.22
2023-05-11T02:05:25.032Z,99967.66
2023-05-11T02:07:54.417Z,99971.34
2023-05-11T02:10:24.956Z,99969.56
2023-05-11T02:12:53.870Z,99973.38
2023-05-11T02:15:23.864Z,99969.88
2023-05-11T02:17:51.525Z,99971.78
2023-05-11T02:20:19.652Z,99973.84
2023-05-11T02:22:47.193Z,99973.66
2023-05-11T02:25:15.517Z,99971.75
2023-05-11T02:27:42.252Z,99972.66
2023-05-11T02:30:09.474Z,99967.19
2023-05-11T02:32:38.977Z,99978.19
2023-05-11T02:35:10.084Z,99977.34
2023-05-11T02:37:43.337Z,99972.13
2023-05-11T02:40:18.040Z,99981.13
2023-05-11T02:42:49.000Z,99975.09
2023-05-11T02:45:18.950Z,99967.34
2023-05-11T02:47:52.853Z,99971.97
2023-05-11T02:50:22.626Z,99966.25
2023-05-11T02:52:51.166Z,99970.25
2023-05-11T02:55:20.820Z,99971.75
2023-05-11T02:57:47.750Z,99977.81
2023-05-11T03:00:14.596Z,99973.06
2023-05-11T03:02:41.306Z,99970.94
2023-05-11T03:05:08.208Z,99966.94
2023-05-11T03:07:35.454Z,99970.13
2023-05-11T03:10:03.309Z,99973.63
2023-05-11T03:12:33.859Z,99965.84
2023-05-11T03:15:02.237Z,99965.16
2023-05-11T03:17:30.118Z,99970.69
2023-05-11T03:19:58.735Z,99965.09
2023-05-11T03:22:26.507Z,99966.66
2023-05-11T03:24:53.418Z,99971.63
2023-05-11T03:27:20.727Z,99966.22
2023-05-11T03:29:50.007Z,99964.25
2023-05-11T03:32:16.537Z,99965.09
2023-05-11T03:34:43.183Z,99977.59
2023-05-11T03:37:12.610Z,99967.56
2023-05-11T03:39:41.564Z,99963.84
2023-05-11T03:42:09.012Z,99973.78
2023-05-11T03:44:37.236Z,99968.59
2023-05-11T03:47:04.416Z,99968.25
2023-05-11T03:49:31.192Z,99972.88
2023-05-11T03:51:57.854Z,99964.47
2023-05-11T03:54:24.540Z,99975.41
2023-05-11T03:56:52.220Z,99971.41
2023-05-11T03:59:19.304Z,99965.06
2023-05-11T04:01:46.123Z,99970.25
2023-05-11T04:04:12.745Z,99962.47
2023-05-11T04:06:39.326Z,99960.19
2023-05-11T04:09:06.189Z,99962.38
2023-05-11T04:11:36.761Z,99963.13
2023-05-11T04:14:03.497Z,99964.97
2023-05-11T04:16:30.252Z,99964.75
2023-05-11T04:18:56.913Z,99965.97
2023-05-11T04:21:23.426Z,99966.91
2023-05-11T04:23:49.960Z,99967.44
2023-05-11T04:26:16.470Z,99963.25
2023-05-11T04:28:42.992Z,99963.50
2023-05-11T04:31:10.498Z,99969.63
2023-05-11T04:33:37.290Z,99967.84
2023-05-11T04:36:04.468Z,99966.44
2023-05-11T04:38:31.010Z,99965.72
2023-05-11T04:40:57.540Z,99974.06
2023-05-11T04:43:24.047Z,99968.69
2023-05-11T04:45:51.305Z,99969.91
2023-05-11T04:48:20.521Z,99967.25
2023-05-11T04:50:47.976Z,99970.53
2023-05-11T04:53:14.577Z,99975.00
2023-05-11T04:55:41.121Z,99968.59
2023-05-11T04:58:07.635Z,99975.72
2023-05-11T05:00:34.196Z,99973.66
2023-05-11T05:03:00.805Z,99978.09
2023-05-11T05:05:27.393Z,99966.88
2023-05-11T05:07:53.991Z,99977.13
2023-05-11T05:10:20.739Z,99977.84
2023-05-11T05:12:47.830Z,99976.16
2023-05-11T05:15:14.464Z,99980.50
2023-05-11T05:17:41.120Z,99976.63
2023-05-11T05:20:08.226Z,99974.41
2023-05-11T05:22:34.862Z,99978.44
2023-05-11T05:25:01.472Z,99975.56
2023-05-11T05:27:28.154Z,99979.63
2023-05-11T05:29:54.767Z,99980.22
2023-05-11T05:32:21.325Z,99980.16
2023-05-11T05:34:47.914Z,99978.16
2023-05-11T05:37:14.448Z,99983.53
2023-05-11T05:39:41.009Z,99993.19
2023-05-11T05:42:07.541Z,99983.53
2023-05-11T05:44:34.123Z,99980.13
2023-05-11T05:47:00.729Z,99987.72
2023-05-11T05:49:27.235Z,99994.81
2023-05-11T05:51:54.505Z,100000.72
2023-05-11T05:54:21.137Z,99993.94
2023-05-11T05:56:48.367Z,99998.53
2023-05-11T05:59:15.040Z,99993.09
2023-05-11T06:01:45.952Z,99989.81
2023-05-11T06:04:13.428Z,99992.25
2023-05-11T06:06:40.055Z,99994.06
2023-05-11T06:09:06.632Z,99999.22
2023-05-11T06:11:33.169Z,99992.09
2023-05-11T06:13:59.724Z,99988.97
2023-05-11T06:16:27.711Z,99993.50
2023-05-11T06:18:54.410Z,99991.25
2023-05-11T06:21:21.043Z,99997.56
2023-05-11T06:23:47.534Z,99999.25
2023-05-11T06:26:14.191Z,99998.56
2023-05-11T06:28:40.748Z,99991.53
2023-05-11T06:31:07.272Z,99997.97
2023-05-11T06:33:34.223Z,99989.56
2023-05-11T06:36:05.190Z,99989.00
2023-05-11T06:38:32.154Z,99988.00
2023-05-11T06:40:58.766Z,99989.84
2023-05-11T06:43:25.577Z,99992.53
2023-05-11T06:45:52.238Z,99980.28
2023-05-11T06:48:19.893Z,99985.91
2023-05-11T06:50:46.468Z,99977.94
2023-05-11T06:53:13.765Z,99981.13
2023-05-11T06:55:40.350Z,99981.13
2023-05-11T06:58:06.971Z,99983.81
2023-05-11T07:00:34.009Z,99975.78
2023-05-11T07:03:00.872Z,99983.09
2023-05-11T07:05:27.981Z,99977.03
2023-05-11T07:07:54.568Z,99985.41
2023-05-11T07:10:21.309Z,99984.28
2023-05-11T07:12:48.189Z,99986.69
2023-05-11T07:15:14.762Z,99989.03
2023-05-11T07:17:41.555Z,99981.16
2023-05-11T07:20:08.822Z,99986.75
2023-05-11T07:22:35.390Z,99981.91
2023-05-11T07:25:02.052Z,99988.25
2023-05-11T07:27:28.629Z,99987.38
2023-05-11T07:29:55.142Z,99984.81
2023-05-11T07:32:21.648Z,99997.09
2023-05-11T07:34:48.604Z,99991.25
2023-05-11T07:37:15.332Z,99991.94
2023-05-11T07:39:41.864Z,99999.78
2023-05-11T07:42:08.388Z,99990.22
2023-05-11T07:44:35.030Z,99989.91
2023-05-11T07:47:01.627Z,99988.84
2023-05-11T07:49:42.410Z,99994.34
2023-05-11T07:52:10.009Z,99995.59
2023-05-11T07:54:36.618Z,99991.47
2023-05-11T07:57:04.158Z,99990.69
2023-05-11T07:59:31.190Z,99993.22
2023-05-11T08:01:57.799Z,99982.53
2023-05-11T08:04:24.480Z,99996.50
2023-05-11T08:06:51.056Z,99998.59
2023-05-11T08:09:17.599Z,100001.34
2023-05-11T08:11:44.449Z,100001.16
2023-05-11T08:14:11.020Z,99997.66
2023-05-11T08:16:37.986Z,100005.91
2023-05-11T08:19:04.727Z,99997.75
2023-05-11T08:21:32.856Z,99999.41
2023-05-11T08:23:59.470Z,100002.47
2023-05-11T08:26:26.050Z,100004.16
2023-05-11T08:28:52.845Z,100008.75
2023-05-11T08:31:19.464Z,99998.66
2023-05-11T08:33:46.148Z,99999.47
2023-05-11T08:36:15.745Z,100007.28
2023-05-11T08:38:42.431Z,99995.03
2023-05-11T08:41:12.067Z,99999.28
2023-05-11T08:43:40.397Z,99990.97
2023-05-11T08:46:08.810Z,99999.88
2023-05-11T08:48:36.190Z,100002.25
2023-05-11T08:51:06.247Z,100006.69
2023-05-11T08:53:33.267Z,100004.84
2023-05-11T08:56:01.436Z,100001.38
2023-05-11T08:58:29.853Z,100003.75
2023-05-11T09:00:58.855Z,99993.41
2023-05-11T09:03:26.208Z,100010.84
2023-05-11T09:05:53.275Z,99999.44
2023-05-11T09:08:20.561Z,100008.84
2023-05-11T09:10:49.173Z,99995.19
2023-05-11T09:13:16.105Z,99997.78
2023-05-11T09:15:42.714Z,100001.03
2023-05-11T09:18:09.432Z,100001.38
2023-05-11T09:20:36.082Z,99996.41
2023-05-11T09:23:02.752Z,99996.63
2023-05-11T09:25:33.108Z,99993.16
2023-05-11T09:28:00.137Z,99987.22
2023-05-11T09:30:27.679Z,99983.41
2023-05-11T09:33:00.812Z,99985.94
2023-05-11T09:35:29.715Z,99982.75
2023-05-11T09:38:12.849Z,99987.59
2023-05-11T09:40:46.393Z,99986.28
2023-05-11T09:43:21.764Z,99985.63
2023-05-11T09:45:50.953Z,99982.91
2023-05-11T09:48:26.166Z,99980.06
2023-05-11T09:50:59.901Z,99972.38
2023-05-11T09:53:43.176Z,99986.63
2023-05-11T09:56:11.054Z,99973.72
2023-05-11T09:58:57.863Z,99964.47
2023-05-11T10:01:33.178Z,99987.50
2023-05-11T10:04:21.091Z,99973.19
2023-05-11T10:06:53.555Z,99975.22
2023-05-11T10:09:25.477Z,99979.09
2023-05-11T10:11:53.686Z,99974.84
2023-05-11T10:14:21.919Z,99976.34
2023-05-11T10:16:48.799Z,99972.06
2023-05-11T10:19:16.540Z,99982.78
2023-05-11T10:21:44.072Z,99973.41
2023-05-11T10:24:11.440Z,99973.22
2023-05-11T10:26:38.868Z,99969.88
2023-05-11T10:29:05.924Z,99976.59
2023-05-11T10:31:33.097Z,99977.63
2023-05-11T10:34:01.494Z,99973.78
2023-05-11T10:36:28.616Z,99972.66
2023-05-11T10:38:55.358Z,99977.19
2023-05-11T10:41:27.944Z,99985.41
2023-05-11T10:44:13.306Z,99980.19
2023-05-11T10:47:09.592Z,99976.50
2023-05-11T10:50:04.193Z,99972.91
2023-05-11T10:53:09.236Z,99972.28
2023-05-11T10:55:38.398Z,99968.22
2023-05-11T10:58:18.540Z,99972.00
2023-05-11T11:00:57.214Z,99973.13
2023-05-11T11:03:23.929Z,99981.66
2023-05-11T11:05:50.828Z,99973.72
2023-05-11T11:08:17.535Z,99975.88
2023-05-11T11:10:50.065Z,99978.22
2023-05-11T11:13:20.014Z,99976.63
2023-05-11T11:15:55.591Z,99979.97
2023-05-11T11:18:26.759Z,99969.97
2023-05-11T11:20:55.117Z,99981.94
2023-05-11T11:23:39.772Z,99972.06
2023-05-11T11:26:07.639Z,99965.25
2023-05-11T11:29:01.726Z,99969.34
2023-05-11T11:31:32.982Z,99975.19
2023-05-11T11:34:28.485Z,99978.69
2023-05-11T11:36:55.018Z,99989.44
2023-05-11T11:39:30.504Z,99977.72
2023-05-11T11:42:02.788Z,99982.06
2023-05-11T11:44:29.840Z,99968.09
2023-05-11T11:47:16.207Z,99979.22
2023-05-11T11:49:45.323Z,99984.00
2023-05-11T11:52:27.273Z,99976.94
2023-05-11T11:54:55.865Z,99979.28
2023-05-11T11:57:34.459Z,99985.75
2023-05-11T12:00:11.472Z,99984.94
2023-05-11T12:02:42.863Z,99986.47
2023-05-11T12:05:22.309Z,99985.44
2023-05-11T12:07:51.440Z,99990.59
2023-05-11T12:10:20.553Z,99993.72
2023-05-11T12:12:54.928Z,99998.69
2023-05-11T12:15:34.731Z,99992.31
2023-05-11T12:18:02.949Z,99997.66
2023-05-11T12:20:29.542Z,99993.31
2023-05-11T12:22:56.613Z,99991.25
2023-05-11T12:25:23.632Z,100002.78
2023-05-11T12:28:03.456Z,99999.88
2023-05-11T12:30:32.492Z,100003.47
2023-05-11T12:33:00.213Z,100002.03
2023-05-11T12:35:34.456Z,99993.16
2023-05-11T12:38:02.717Z,100003.94
2023-05-11T12:40:30.915Z,99999.59
2023-05-11T12:42:59.251Z,100006.81
2023-05-11T12:45:27.221Z,100001.25
2023-05-11T12:47:55.634Z,100004.94
2023-05-11T12:50:23.125Z,99997.72
2023-05-11T12:52:50.466Z,100005.28
2023-05-11T12:55:30.481Z,100012.53
2023-05-11T12:58:17.095Z,100014.09
2023-05-11T13:00:56.906Z,100008.41
2023-05-11T13:03:28.280Z,100014.50
2023-05-11T13:06:24.497Z,100017.19
2023-05-11T13:08:51.643Z,100013.41
2023-05-11T13:11:23.111Z,100014.22
2023-05-11T13:13:50.599Z,100015.16
2023-05-11T13:16:32.528Z,100005.13
2023-05-11T13:19:03.527Z,100008.31
2023-05-11T13:21:32.759Z,99998.56
2023-05-11T13:24:00.665Z,100002.31
2023-05-11T13:26:31.284Z,100000.16
2023-05-11T13:29:09.267Z,100001.09
2023-05-11T13:31:47.892Z,99996.22
2023-05-11T13:34:14.682Z,99998.88
2023-05-11T13:36:41.239Z,100000.47
2023-05-11T13:39:07.932Z,99984.53
2023-05-11T13:41:34.617Z,99992.28
2023-05-11T13:44:01.167Z,99990.19
2023-05-11T13:46:27.693Z,99995.34
2023-05-11T13:48:54.930Z,99993.78
2023-05-11T13:51:22.314Z,99981.09
2023-05-11T13:53:48.971Z,99972.59
2023-05-11T13:56:16.690Z,99975.19
2023-05-11T13:58:43.281Z,99970.38
2023-05-11T14:01:09.816Z,99971.75
2023-05-11T14:03:36.495Z,99972.22
2023-05-11T14:06:03.840Z,99966.91
2023-05-11T14:08:30.413Z,99973.25
2023-05-11T14:10:56.956Z,99972.66
2023-05-11T14:13:26.515Z,99960.72
2023-05-11T14:15:53.038Z,99960.66
2023-05-11T14:18:19.647Z,99963.72
2023-05-11T14:20:46.516Z,99960.31
2023-05-11T14:23:13.500Z,99970.06
2023-05-11T14:25:40.022Z,99952.28
2023-05-11T14:28:06.751Z,99954.72
2023-05-11T14:30:33.385Z,99957.38
2023-05-11T14:33:00.815Z,99947.72
2023-05-11T14:35:27.410Z,99948.56
2023-05-11T14:37:54.754Z,99948.22
2023-05-11T14:40:21.543Z,99949.56
2023-05-11T14:42:48.637Z,99948.06
2023-05-11T14:45:15.284Z,99949.06
2023-05-11T14:47:41.876Z,99949.97
2023-05-11T14:50:09.321Z,99951.72
2023-05-11T14:52:35.888Z,99943.59
2023-05-11T14:55:02.419Z,99946.06
2023-05-11T14:57:29.053Z,99950.97
2023-05-11T15:00:00.246Z,99945.78
2023-05-11T15:02:27.516Z,99945.81
2023-05-11T15:04:54.202Z,99958.69
2023-05-11T15:07:21.323Z,99954.84
2023-05-11T15:09:47.915Z,99958.03
2023-05-11T15:12:14.432Z,99969.25
2023-05-11T15:14:40.940Z,99965.09
2023-05-11T15:17:07.496Z,99963.81
2023-05-11T15:19:34.075Z,99971.44
2023-05-11T15:22:00.820Z,99974.41
2023-05-11T15:24:27.394Z,99976.72
2023-05-11T15:26:54.004Z,99974.63
2023-05-11T15:29:22.251Z,99977.84
2023-05-11T15:31:48.909Z,99979.63
2023-05-11T15:34:16.160Z,99977.00
2023-05-11T15:36:42.875Z,99979.47
2023-05-11T15:39:09.407Z,99979.19
2023-05-11T15:41:36.032Z,99983.66
2023-05-11T15:44:02.606Z,99988.28
2023-05-11T15:46:29.197Z,99993.47
2023-05-11T15:48:58.258Z,99981.38
2023-05-11T15:51:26.381Z,99987.75
2023-05-11T15:53:52.907Z,99978.00
2023-05-11T15:56:19.620Z,99981.88
2023-05-11T15:58:46.543Z,99986.56
2023-05-11T16:01:13.157Z,99994.28
2023-05-11T16:03:39.726Z,99999.13
2023-05-11T16:06:06.646Z,99996.78
2023-05-11T16:08:33.196Z,100000.00
2023-05-11T16:10:59.724Z,99988.22
2023-05-11T16:13:26.279Z,99998.56
2023-05-11T16:15:52.880Z,99997.56
2023-05-11T16:18:21.708Z,99999.06
2023-05-11T16:20:48.235Z,99994.44
2023-05-11T16:23:14.761Z,99986.88
2023-05-11T16:25:41.325Z,99994.25
2023-05-11T16:28:07.887Z,99995.59
2023-05-11T16:30:34.494Z,100003.28
2023-05-11T16:33:01.072Z,100000.41
2023-05-11T16:35:27.681Z,100001.00
2023-05-11T16:37:56.558Z,99998.06
2023-05-11T16:40:23.102Z,99994.84
2023-05-11T16:42:49.680Z,100000.25
2023-05-11T16:45:16.636Z,99990.84
2023-05-11T16:47:45.429Z,99999.28
2023-05-11T16:50:14.786Z,99996.34
2023-05-11T16:52:42.017Z,100002.50
2023-05-11T16:55:09.435Z,100007.94
2023-05-11T16:57:35.987Z,100004.31
2023-05-11T17:00:02.659Z,100010.63
2023-05-11T17:02:29.785Z,100004.50
2023-05-11T17:04:56.422Z,100005.56
2023-05-11T17:07:22.962Z,100011.56
2023-05-11T17:09:52.160Z,100010.78
2023-05-11T17:12:18.702Z,100014.59
2023-05-11T17:14:45.224Z,100017.88
2023-05-11T17:17:11.808Z,100025.56
2023-05-11T17:19:38.442Z,100016.38
2023-05-11T17:22:05.306Z,100018.72
2023-05-11T17:24:31.894Z,100023.59
2023-05-11T17:26:59.056Z,100024.59
2023-05-11T17:29:25.989Z,100022.41
2023-05-11T17:31:52.859Z,100026.78
2023-05-11T17:34:20.522Z,100027.94
2023-05-11T17:36:48.195Z,100028.78
2023-05-11T17:39:16.408Z,100032.28
2023-05-11T17:41:43.413Z,100034.13
2023-05-11T17:44:10.168Z,100033.28
2023-05-11T17:46:36.726Z,100040.00
2023-05-11T17:49:04.021Z,100041.63
2023-05-11T17:51:31.253Z,100043.63
2023-05-11T17:53:57.819Z,100054.34
2023-05-11T17:56:24.405Z,100052.97
2023-05-11T17:58:51.669Z,100056.16
2023-05-11T18:01:19.525Z,100053.97
2023-05-11T18:03:46.860Z,100060.31
2023-05-11T18:06:13.624Z,100060.78
2023-05-11T18:08:40.558Z,100072.09
2023-05-11T18:11:07.712Z,100071.28
2023-05-11T18:13:35.641Z,100063.34
2023-05-11T18:16:02.391Z,100070.75
2023-05-11T18:18:29.041Z,100068.75
2023-05-11T18:20:55.862Z,100074.25
2023-05-11T18:23:22.674Z,100076.94
2023-05-11T18:25:49.260Z,100081.69
2023-05-11T18:28:15.843Z,100091.13
2023-05-11T18:30:42.563Z,100093.53
2023-05-11T18:33:09.214Z,100094.34
2023-05-11T18:35:36.110Z,100092.75
2023-05-11T18:38:04.737Z,100102.84
2023-05-11T18:40:31.365Z,100096.81
2023-05-11T18:42:57.916Z,100100.75
2023-05-11T18:45:25.042Z,100106.66
2023-05-11T18:47:51.867Z,100106.50
2023-05-11T18:50:18.656Z,100112.06
2023-05-11T18:52:45.460Z,100115.72
2023-05-11T18:55:12.139Z,100110.41
2023-05-11T18:57:39.694Z,100120.19
2023-05-11T19:00:07.320Z,100125.09
2023-05-11T19:02:33.983Z,100132.75
2023-05-11T19:05:01.350Z,100126.84
2023-05-11T19:07:28.545Z,100131.41
2023-05-11T19:09:55.312Z,100137.06
2023-05-11T19:12:21.903Z,100137.25
2023-05-11T19:14:48.437Z,100138.25
2023-05-11T19:17:15.025Z,100143.56
2023-05-11T19:19:41.991Z,100144.53
2023-05-11T19:22:09.375Z,100143.09
2023-05-11T19:24:36.108Z,100150.25
2023-05-11T19:27:07.824Z,100149.88
2023-05-11T19:29:35.465Z,100152.41
2023-05-11T19:32:02.712Z,100151.56
2023-05-11T19:34:29.308Z,100150.88
2023-05-11T19:36:55.970Z,100152.38
2023-05-11T19:39:22.527Z,100158.16
2023-05-11T19:41:49.072Z,100157.03
2023-05-11T19:44:15.732Z,100159.84
2023-05-11T19:46:46.742Z,100169.59
2023-05-11T19:49:15.338Z,100160.03
2023-05-11T19:51:42.607Z,100158.16
2023-05-11T19:54:09.568Z,100158.91
2023-05-11T19:56:36.126Z,100159.47
2023-05-11T19:59:02.907Z,100164.97
2023-05-11T20:01:29.497Z,100171.16
2023-05-11T20:03:56.566Z,100164.78
2023-05-11T20:06:23.355Z,100163.66
2023-05-11T20:08:51.565Z,100165.34
2023-05-11T20:11:18.292Z,100167.72
2023-05-11T20:13:45.203Z,100163.53
2023-05-11T20:16:11.831Z,100167.75
2023-05-11T20:18:38.501Z,100170.16
2023-05-11T20:21:05.087Z,100165.09
2023-05-11T20:23:31.678Z,100169.16
2023-05-11T20:25:58.237Z,100167.44
2023-05-11T20:28:27.339Z,100167.38
2023-05-11T20:30:56.252Z,100174.19
2023-05-11T20:35:53.499Z,100174.53
2023-05-11T20:38:20.400Z,100174.06
2023-05-11T20:40:46.940Z,100170.13
2023-05-11T20:43:14.837Z,100170.66
2023-05-11T20:45:42.261Z,100177.69
2023-05-11T20:48:09.093Z,100178.91
2023-05-11T20:50:35.713Z,100178.75
2023-05-11T20:53:02.339Z,100175.50
2023-05-11T20:55:28.927Z,100173.66
2023-05-11T20:57:55.535Z,100169.44
2023-05-11T21:00:22.993Z,100177.25
2023-05-11T21:02:49.969Z,100175.88
2023-05-11T21:05:16.813Z,100176.81
2023-05-11T21:07:43.336Z,100172.25
2023-05-11T21:10:11.868Z,100163.97
2023-05-11T21:12:38.437Z,100173.13
2023-05-11T21:15:06.912Z,100175.78
2023-05-11T21:17:33.743Z,100175.13
2023-05-11T21:20:00.498Z,100167.75
2023-05-11T21:22:27.153Z,100172.44
2023-05-11T21:24:53.804Z,100165.97
2023-05-11T21:27:20.349Z,100175.06
2023-05-11T21:29:48.145Z,100175.06
2023-05-11T21:32:14.777Z,100165.06
2023-05-11T21:34:41.450Z,100166.47
2023-05-11T21:37:08.305Z,100165.31
2023-05-11T21:39:35.356Z,100163.06
2023-05-11T21:42:03.548Z,100165.13
2023-05-11T21:44:30.116Z,100173.13
2023-05-11T21:46:56.967Z,100170.91
2023-05-11T21:49:23.581Z,100165.97
2023-05-11T21:51:50.333Z,100170.19
2023-05-11T21:54:16.865Z,100167.59
2023-05-11T21:56:43.397Z,100164.72
2023-05-11T21:59:09.886Z,100175.91
2023-05-11T22:01:36.664Z,100173.63
2023-05-11T22:04:03.563Z,100177.31
2023-05-11T22:06:30.860Z,100178.41
2023-05-11T22:08:57.397Z,100180.91
2023-05-11T22:11:24.251Z,100177.06
2023-05-11T22:13:51.046Z,100173.25
2023-05-11T22:16:17.682Z,100169.53
2023-05-11T22:18:44.415Z,100176.22
2023-05-11T22:21:11.061Z,100178.41
2023-05-11T22:23:37.634Z,100176.94
2023-05-11T22:26:04.655Z,100175.38
2023-05-11T22:28:31.166Z,100168.03
2023-05-11T22:31:00.574Z,100176.91
2023-05-11T22:33:27.130Z,100178.84
2023-05-11T22:35:53.701Z,100176.31
2023-05-11T22:38:20.227Z,100178.59
2023-05-11T22:40:47.642Z,100181.06
2023-05-11T22:43:14.698Z,100180.41
2023-05-11T22:45:41.718Z,100183.44
2023-05-11T22:48:08.564Z,100192.31
2023-05-11T22:50:35.225Z,100187.66
2023-05-11T22:53:01.772Z,100183.00
2023-05-11T22:55:28.906Z,100179.34
2023-05-11T22:57:55.432Z,100184.06
2023-05-11T23:00:22.319Z,100179.28
2023-05-11T23:02:49.052Z,100183.50
2023-05-11T23:05:15.681Z,100173.22
2023-05-11T23:07:42.278Z,100177.63
2023-05-11T23:10:09.248Z,100172.25
2023-05-11T23:12:35.753Z,100178.59
2023-05-11T23:15:02.361Z,100180.94
2023-05-11T23:17:29.038Z,100173.41
2023-05-11T23:19:55.725Z,100179.09
2023-05-11T23:22:22.255Z,100176.44
2023-05-11T23:25:04.139Z,100172.16
2023-05-11T23:27:30.623Z,100174.03
2023-05-11T23:29:57.180Z,100165.91
2023-05-11T23:32:24.218Z,100168.19
2023-05-11T23:34:50.732Z,100179.66
2023-05-11T23:37:17.242Z,100177.97
2023-05-11T23:39:43.805Z,100179.06
2023-05-11T23:42:10.546Z,100173.56
2023-05-11T23:44:37.044Z,100182.81
2023-05-11T23:47:03.658Z,100185.88
2023-05-11T23:49:30.369Z,100180.50
2023-05-11T23:51:57.042Z,100184.50
2023-05-11T23:54:23.558Z,100179.78
2023-05-11T23:56:50.131Z,100163.84
2023-05-11T23:59:16.637Z,100166.91
